Welcome to Northern Hawkes Bay. New Zealand.
PWS Header
      nz Flag



Hit Counter


W3C Valid W3C Valid logo


    Wairoa

Select any of the Stations below to visit their websites.










Historic Data from Weather Underground
Select the location of interest below. Wairoa is the default. Please have patience, this Data is slow to load in.
Northern Hawkes Bay Historical Data
Daily Summary for March 10, 2017 Units:  English    Metric   Both
« Previous Day
Next Day »
Daily Weekly Monthly Yearly Custom
  High: Low: Average:
Temperature: 74.3 °F 58.5 °F 65.1 °F
Dew Point: 67.5 °F 58.3 °F 62.2 °F
Humidity: 99% 77% 91%
Wind Speed: 6.9mph 0mph 1.2mph
Wind Gust: 9.2mph - -
Wind- - South
Pressure: 30.2 in 29.9 in -
Precipitation: 0.04 in    
Historical Graphs
 
 
Tabular Data for March 10, 2017
Time Temperature Dew Point Pressure Wind Wind Speed Wind Gust Humidity Rainfall Rate (Hourly) solar
00:04 59.7 °F 58.3 °F 30.2 in Calm     95% 0.01 in 0 W/m2
00:09 59.7 °F 58.3 °F 30.2 in Calm     95% 0.01 in 0 W/m2
00:15 59.7 °F 58.6 °F 30.2 in Calm     96% 0.01 in 0 W/m2
00:20 59.7 °F 58.6 °F 30.2 in Calm     96% 0.01 in 0 W/m2
00:25 59.7 °F 58.6 °F 30.2 in Calm     96% 0.01 in 0 W/m2
00:30 59.5 °F 58.5 °F 30.2 in Calm     96% 0.01 in 0 W/m2
00:36 59.5 °F 58.5 °F 30.2 in Calm     96% 0 in 0 W/m2
00:41 59.5 °F 58.5 °F 30.2 in Calm     96% 0 in 0 W/m2
00:46 59.7 °F 58.6 °F 30.2 in Calm     96% 0 in 0 W/m2
00:51 59.7 °F 58.6 °F 30.2 in Calm     96% 0 in 0 W/m2
00:56 59.7 °F 58.8 °F 30.2 in Calm     97% 0 in 0 W/m2
01:01 59.9 °F 59.2 °F 30.2 in Calm     97% 0 in 0 W/m2
01:06 59.7 °F 58.8 °F 30.2 in Calm     97% 0 in 0 W/m2
01:11 59.7 °F 58.8 °F 30.2 in Calm     97% 0 in 0 W/m2
01:16 59.7 °F 58.8 °F 30.2 in Calm     97% 0 in 0 W/m2
01:21 59.7 °F 58.8 °F 30.2 in Calm     97% 0 in 0 W/m2
01:27 59.7 °F 58.8 °F 30.2 in Calm     97% 0 in 0 W/m2
01:32 59.7 °F 58.8 °F 30.2 in Calm     97% 0 in 0 W/m2
01:37 59.5 °F 58.6 °F 30.2 in Calm     97% 0 in 0 W/m2
01:42 59.4 °F 58.8 °F 30.2 in Calm     98% 0 in 0 W/m2
01:47 59.4 °F 58.8 °F 30.2 in Calm     98% 0 in 0 W/m2
01:52 60.1 °F 59.5 °F 30.2 in Calm     98% 0 in 0 W/m2
01:57 59.5 °F 59 °F 30.2 in Calm     98% 0 in 0 W/m2
02:02 59.5 °F 59 °F 30.2 in Calm     98% 0 in 0 W/m2
02:07 59.5 °F 59 °F 30.2 in Calm     98% 0 in 0 W/m2
02:12 59.5 °F 59.4 °F 30.2 in Calm     99% 0 in 0 W/m2
02:17 59.5 °F 59.4 °F 30.2 in Calm     99% 0 in 0 W/m2
02:22 59.7 °F 59.5 °F 30.2 in Calm     99% 0 in 0 W/m2
02:27 59.7 °F 59.5 °F 30.2 in Calm     99% 0 in 0 W/m2
02:32 59.9 °F 59.5 °F 30.2 in Calm     99% 0 in 0 W/m2
02:37 59.7 °F 59.5 °F 30.2 in Calm     99% 0 in 0 W/m2
02:42 59.7 °F 59.5 °F 30.2 in Calm     99% 0 in 0 W/m2
02:47 59.7 °F 59.5 °F 30.2 in Calm     99% 0 in 0 W/m2
02:53 59.7 °F 59.5 °F 30.2 in Calm     99% 0 in 0 W/m2
02:58 59.5 °F 59.4 °F 30.2 in Calm     99% 0 in 0 W/m2
03:03 59.5 °F 59.4 °F 30.2 in Calm     99% 0 in 0 W/m2
03:08 59.2 °F 58.8 °F 30.2 in Calm     99% 0 in 0 W/m2
03:13 59.5 °F 59.4 °F 30.2 in Calm     99% 0 in 0 W/m2
03:18 59.5 °F 59.4 °F 30.2 in Calm     99% 0 in 0 W/m2
03:23 59.5 °F 59.4 °F 30.2 in Calm     99% 0 in 0 W/m2
03:28 58.6 °F 58.5 °F 30.2 in Calm     99% 0 in 0 W/m2
03:33 59.5 °F 59.4 °F 30.2 in Calm     99% 0 in 0 W/m2
03:34 59.5 °F 59.4 °F 30.2 in Calm     99% 0 in 0 W/m2
03:39 59.5 °F 59.4 °F 30.2 in Calm     99% 0 in 0 W/m2
03:44 58.8 °F 58.6 °F 30.2 in Calm     99% 0 in 0 W/m2
03:49 59.5 °F 59.4 °F 30.2 in Calm     99% 0 in 0 W/m2
03:54 59.5 °F 59.4 °F 30.2 in Calm     99% 0 in 0 W/m2
03:59 59.4 °F 59.2 °F 30.2 in Calm     99% 0 in 0 W/m2
04:04 58.5 °F 58.3 °F 30.2 in Calm     99% 0 in 0 W/m2
04:09 59.4 °F 59.2 °F 30.2 in Calm     99% 0 in 0 W/m2
04:14 59.4 °F 59.2 °F 30.2 in Calm     99% 0 in 0 W/m2
04:19 59.4 °F 59.2 °F 30.2 in Calm     99% 0 in 0 W/m2
04:24 59.4 °F 59.2 °F 30.2 in Calm     99% 0 in 0 W/m2
04:29 59.5 °F 59.4 °F 30.2 in Calm     99% 0 in 0 W/m2
04:34 59.5 °F 59.4 °F 30.2 in Calm     99% 0 in 0 W/m2
04:39 59.5 °F 59.4 °F 30.2 in NW 1.6 mph 3.1 mph 99% 0 in 0 W/m2
04:44 59 °F 58.6 °F 30.2 in Calm   3.1 mph 99% 0 in 0 W/m2
04:49 59.4 °F 59.2 °F 30.2 in Calm   2.2 mph 99% 0 in 0 W/m2
04:54 59.4 °F 59.2 °F 30.2 in Calm     99% 0 in 0 W/m2
04:59 59.4 °F 59.2 °F 30.2 in Calm     99% 0 in 0 W/m2
05:04 58.6 °F 58.5 °F 30.2 in Calm     99% 0 in 0 W/m2
05:09 59.2 °F 58.8 °F 30.2 in Calm     99% 0 in 0 W/m2
05:14 59.2 °F 58.8 °F 30.2 in Calm     99% 0 in 0 W/m2
05:19 59.2 °F 58.8 °F 30.2 in Calm     99% 0 in 0 W/m2
05:24 58.5 °F 58.3 °F 30.2 in Calm     99% 0 in 0 W/m2
05:29 59.2 °F 58.8 °F 30.2 in Calm     99% 0 in 0 W/m2
05:35 59.4 °F 59.2 °F 30.2 in Calm     99% 0 in 0 W/m2
05:40 59 °F 58.6 °F 30.2 in Calm     99% 0 in 0 W/m2
05:45 59.4 °F 59.2 °F 30.1 in Calm     99% 0 in 0 W/m2
05:50 59.5 °F 59.4 °F 30.1 in Calm     99% 0 in 0 W/m2
05:55 59.5 °F 59.4 °F 30.1 in Calm     99% 0 in 0 W/m2
06:00 59 °F 58.6 °F 30.1 in Calm     99% 0 in 0 W/m2
06:05 59.4 °F 59.2 °F 30.1 in Calm     99% 0 in 0 W/m2
06:10 59.2 °F 58.8 °F 30.1 in Calm     99% 0 in 0 W/m2
06:15 59.2 °F 58.8 °F 30.1 in Calm     99% 0 in 0 W/m2
06:20 59.2 °F 58.8 °F 30.1 in Calm     99% 0 in 0 W/m2
06:25 59.2 °F 58.8 °F 30.1 in Calm     99% 0 in 0 W/m2
06:30 59.2 °F 58.8 °F 30.1 in Calm     99% 0 in 0 W/m2
06:36 59.2 °F 58.8 °F 30.1 in Calm     99% 0 in 0 W/m2
06:39 59.2 °F 58.8 °F 30.1 in Calm     99% 0 in 0 W/m2
06:44 59.2 °F 58.8 °F 30.1 in Calm     99% 0 in 0 W/m2
06:49 59.2 °F 58.8 °F 30.2 in Calm     99% 0 in 0 W/m2
06:54 59.2 °F 58.8 °F 30.1 in Calm     99% 0 in 0 W/m2
06:59 59.2 °F 58.8 °F 30.1 in Calm     99% 0 in 0 W/m2
07:04 59.4 °F 59.2 °F 30.1 in Calm   0.7 mph 99% 0.01 in 0 W/m2
07:09 59.2 °F 58.8 °F 30.2 in Calm   0.7 mph 99% 0.01 in 2 W/m2
07:14 59.2 °F 58.8 °F 30.2 in Calm     99% 0.01 in 3 W/m2
07:19 59.2 °F 58.8 °F 30.2 in Calm     99% 0.01 in 4 W/m2
07:24 59.2 °F 58.8 °F 30.2 in Calm     99% 0.01 in 7 W/m2
07:29 59.4 °F 59.2 °F 30.1 in Calm     99% 0.01 in 12 W/m2
07:33 59.4 °F 59.2 °F 30.2 in Calm     99% 0.01 in 13 W/m2
07:39 59.4 °F 59.2 °F 30.2 in Calm     99% 0.01 in 14 W/m2
07:41 59.4 °F 59.2 °F 30.2 in Calm     99% 0.01 in 17 W/m2
07:43 59.4 °F 59.2 °F 30.2 in Calm     99% 0.01 in 21 W/m2
07:46 59.4 °F 59.2 °F 30.1 in Calm   0.7 mph 99% 0.01 in 28 W/m2
07:47 59.4 °F 59.2 °F 30.1 in Calm   0.7 mph 99% 0.01 in 31 W/m2
07:52 59.5 °F 59.4 °F 30.2 in Calm   1.6 mph 99% 0.01 in 39 W/m2
07:57 59.5 °F 59.4 °F 30.1 in Calm   1.6 mph 99% 0.01 in 43 W/m2
08:02 59.7 °F 59.5 °F 30.1 in Calm     99% 0 in 53 W/m2
08:07 59.9 °F 59.5 °F 30.2 in Calm   3.1 mph 99% 0 in 79 W/m2
08:12 60.1 °F 59.7 °F 30.1 in Calm   3.1 mph 99% 0 in 99 W/m2
08:13 60.1 °F 59.7 °F 30.1 in Calm   3.1 mph 99% 0 in 101 W/m2
08:18 60.6 °F 60.4 °F 30.1 in Calm     99% 0 in 101 W/m2
08:23 61 °F 60.4 °F 30.1 in Calm     98% 0 in 114 W/m2
08:28 61.3 °F 60.8 °F 30.1 in Calm     98% 0 in 108 W/m2
08:33 61.5 °F 61 °F 30.1 in Calm     98% 0 in 89 W/m2
08:38 61.5 °F 61 °F 30.1 in Calm     98% 0 in 99 W/m2
08:43 61.7 °F 61.2 °F 30.1 in Calm     98% 0 in 126 W/m2
08:48 63.1 °F 62.2 °F 30.1 in Calm     97% 0 in 116 W/m2
08:53 62.2 °F 61.7 °F 30.1 in Calm     98% 0 in 124 W/m2
08:58 63 °F 61.9 °F 30.1 in Calm     96% 0 in 220 W/m2
09:03 63.9 °F 62.4 °F 30.1 in Calm     95% 0 in 195 W/m2
09:08 64.6 °F 63.1 °F 30.1 in Calm     95% 0 in 182 W/m2
09:13 64.6 °F 62.4 °F 30.1 in Calm   0.7 mph 93% 0 in 207 W/m2
09:18 64.8 °F 61.9 °F 30.1 in Calm   3.1 mph 90% 0 in 243 W/m2
09:23 65.1 °F 62.1 °F 30.1 in Calm   4.5 mph 90% 0 in 222 W/m2
09:28 64.9 °F 61.5 °F 30.2 in NNW 1.6 mph 4.5 mph 89% 0 in 228 W/m2
09:33 65.7 °F 62.1 °F 30.2 in NNW 0.7 mph 3.8 mph 88% 0 in 209 W/m2
09:38 65.5 °F 61.9 °F 30.1 in NNW 0.7 mph 3.8 mph 88% 0 in 203 W/m2
09:43 65.8 °F 62.2 °F 30.2 in Calm   3.8 mph 88% 0 in 227 W/m2
09:48 66.4 °F 62.4 °F 30.2 in Calm   2.2 mph 87% 0 in 253 W/m2
09:53 66.6 °F 62.6 °F 30.1 in Calm   1.6 mph 87% 0 in 218 W/m2
09:58 66.4 °F 62.1 °F 30.1 in Calm     86% 0 in 181 W/m2
10:03 66.4 °F 61.9 °F 30.1 in Calm     85% 0 in 182 W/m2
10:08 65.8 °F 61.5 °F 30.1 in NNW 2.2 mph 4.5 mph 86% 0 in 206 W/m2
10:13 66.6 °F 62.2 °F 30.1 in Calm   4.5 mph 86% 0 in 291 W/m2
10:18 67.8 °F 63.5 °F 30.1 in Calm   3.8 mph 86% 0 in 257 W/m2
10:23 68.5 °F 63.5 °F 30.1 in Calm     84% 0 in 274 W/m2
10:28 69.6 °F 63.9 °F 30.1 in Calm     82% 0 in 235 W/m2
10:33 69.6 °F 63.1 °F 30.2 in Calm     80% 0 in 199 W/m2
10:38 68.9 °F 62.4 °F 30.1 in Calm     80% 0 in 186 W/m2
10:43 68.9 °F 62.1 °F 30.1 in Calm   3.8 mph 79% 0 in 304 W/m2
10:48 69.1 °F 62.2 °F 30.1 in SSE 1.6 mph 3.8 mph 79% 0 in 388 W/m2
10:53 69.8 °F 63 °F 30.1 in Calm   3.8 mph 79% 0 in 288 W/m2
10:58 69.4 °F 62.8 °F 30.1 in South 3.8 mph 5.4 mph 79% 0 in 210 W/m2
11:03 68.9 °F 62.4 °F 30.1 in Calm   5.4 mph 80% 0 in 201 W/m2
11:08 68.5 °F 62.4 °F 30.1 in Calm   5.4 mph 81% 0 in 212 W/m2
11:13 68.5 °F 62.4 °F 30.1 in Calm   4.5 mph 81% 0 in 179 W/m2
11:18 68 °F 62.2 °F 30.1 in South 3.1 mph 5.4 mph 82% 0 in 162 W/m2
11:23 67.6 °F 62.8 °F 30.1 in SSW 1.6 mph 5.4 mph 84% 0 in 203 W/m2
11:28 67.8 °F 62.8 °F 30.1 in SSW 3.1 mph 5.4 mph 84% 0 in 201 W/m2
11:33 68 °F 63 °F 30.1 in SW 0.7 mph 5.4 mph 84% 0 in 171 W/m2
11:38 67.5 °F 62.4 °F 30.1 in SW 2.2 mph 6 mph 84% 0 in 256 W/m2
11:56 69.3 °F 63 °F 30.1 in SW 3.1 mph 6.9 mph 80% 0 in 347 W/m2
12:01 68.9 °F 63.1 °F 30.1 in SW 5.4 mph 8.3 mph 82% 0 in 362 W/m2
12:06 68.9 °F 63.1 °F 30.1 in SSW 3.1 mph 8.3 mph 82% 0 in 251 W/m2
12:11 68.5 °F 63 °F 30.1 in SW 5.4 mph 8.3 mph 82% 0 in 244 W/m2
12:16 68.2 °F 62.8 °F 30.1 in SW 3.8 mph 6.9 mph 83% 0 in 142 W/m2
12:21 67.5 °F 62.8 °F 30.1 in SW 5.4 mph 6.9 mph 85% 0 in 147 W/m2
12:26 66.7 °F 62.4 °F 30.1 in SSW 3.8 mph 7.6 mph 86% 0 in 167 W/m2
12:31 66.4 °F 62.4 °F 30.1 in SW 4.5 mph 7.6 mph 87% 0 in 226 W/m2
12:36 66.2 °F 63 °F 30.1 in SW 4.5 mph 7.6 mph 89% 0 in 257 W/m2
12:41 66.2 °F 63.1 °F 30.1 in SW 4.5 mph 7.6 mph 90% 0 in 299 W/m2
12:46 66.4 °F 63.7 °F 30.1 in SW 4.5 mph 7.6 mph 91% 0 in 281 W/m2
12:51 66.6 °F 63.9 °F 30.1 in SW 4.5 mph 9.2 mph 91% 0 in 364 W/m2
12:56 66.7 °F 64 °F 30.1 in SW 5.4 mph 9.2 mph 91% 0 in 276 W/m2
13:01 66.4 °F 63.3 °F 30.1 in SW 3.8 mph 9.2 mph 90% 0 in 231 W/m2
13:06 66 °F 63.7 °F 30.1 in SW 3.8 mph 9.2 mph 92% 0.01 in 261 W/m2
13:11 66.4 °F 64 °F 30.1 in SSW 5.4 mph 7.6 mph 92% 0.01 in 415 W/m2
13:16 66.7 °F 64.4 °F 30.1 in SW 3.8 mph 7.6 mph 92% 0.01 in 418 W/m2
13:21 67.1 °F 64.8 °F 30.1 in SW 3.8 mph 8.3 mph 92% 0.01 in 798 W/m2
13:26 68.4 °F 65.3 °F 30.1 in SW 6 mph 9.2 mph 90% 0.01 in 666 W/m2
13:31 68.5 °F 64.9 °F 30.1 in SW 6 mph 9.2 mph 88% 0.01 in 577 W/m2
13:36 68.4 °F 64.8 °F 30.1 in SSW 6.9 mph 9.2 mph 88% 0.01 in 332 W/m2
13:41 68.2 °F 64.2 °F 30.1 in SSW 5.4 mph 9.2 mph 87% 0.01 in 409 W/m2
13:46 68.7 °F 65.1 °F 30.1 in SSW 3.8 mph 9.2 mph 88% 0.01 in 330 W/m2
13:51 68.9 °F 64.6 °F 30.1 in SSW 4.5 mph 8.3 mph 86% 0.01 in 454 W/m2
13:56 68.9 °F 64.2 °F 30.1 in SSW 3.8 mph 7.6 mph 85% 0.01 in 348 W/m2
14:01 68.9 °F 64.2 °F 30.1 in SW 6 mph 7.6 mph 85% 0.01 in 343 W/m2
14:06 68.7 °F 64 °F 30.1 in SW 3.8 mph 7.6 mph 85% 0 in 421 W/m2
14:11 69.1 °F 64 °F 30.1 in SSW 6.9 mph 9.2 mph 84% 0 in 425 W/m2
14:16 68.7 °F 64 °F 30.1 in South 3.8 mph 9.2 mph 85% 0 in 444 W/m2
14:21 68.9 °F 64.2 °F 30.1 in South 3.8 mph 8.3 mph 85% 0 in 291 W/m2
14:26 68.7 °F 64 °F 30.1 in South 3.8 mph 6.9 mph 85% 0 in 310 W/m2
14:31 68.5 °F 64.2 °F 30.1 in SSW 4.5 mph 7.6 mph 86% 0 in 329 W/m2
14:36 68.4 °F 64 °F 30.1 in South 3.8 mph 7.6 mph 86% 0 in 564 W/m2
14:41 68.5 °F 64.6 °F 30.1 in South 5.4 mph 6.9 mph 87% 0 in 400 W/m2
14:46 68.5 °F 64.9 °F 30.1 in South 3.8 mph 6.9 mph 88% 0 in 325 W/m2
14:51 68.2 °F 64.6 °F 30.1 in South 3.8 mph 7.6 mph 88% 0 in 336 W/m2
14:56 68.5 °F 65.5 °F 30.1 in South 4.5 mph 7.6 mph 90% 0 in 362 W/m2
15:01 68.9 °F 65.8 °F 30.1 in South 4.5 mph 6.9 mph 90% 0.01 in 461 W/m2
15:06 69.6 °F 66.6 °F 30.1 in SSW 2.2 mph 6.9 mph 90% 0.01 in 517 W/m2
15:11 70.9 °F 66.9 °F 30.1 in SSW 3.1 mph 6.9 mph 87% 0.01 in 324 W/m2
15:16 70.3 °F 65.3 °F 30.1 in SSW 3.1 mph 5.4 mph 84% 0.01 in 385 W/m2
15:21 70.2 °F 65.1 °F 30.1 in South 1.6 mph 5.4 mph 84% 0.01 in 351 W/m2
15:26 70.2 °F 64.8 °F 30.1 in SSE 3.8 mph 6.9 mph 83% 0.01 in 566 W/m2
15:31 71.6 °F 66.6 °F 30 in SE 3.1 mph 6.9 mph 84% 0.01 in 410 W/m2
15:36 71.8 °F 65.7 °F 30 in SSE 4.5 mph 9.2 mph 81% 0.01 in 552 W/m2
15:41 71.8 °F 65.3 °F 30 in South 3.8 mph 9.2 mph 80% 0.01 in 483 W/m2
15:46 72.1 °F 66 °F 30 in South 4.5 mph 8.3 mph 81% 0.01 in 487 W/m2
15:51 71.4 °F 65.7 °F 30 in South 6.9 mph 8.3 mph 82% 0.01 in 452 W/m2
15:56 71.2 °F 66.2 °F 30 in South 5.4 mph 8.3 mph 84% 0.01 in 458 W/m2
16:01 71.8 °F 66 °F 30 in South 3.1 mph 7.6 mph 82% 0 in 362 W/m2
16:06 72.3 °F 66.6 °F 30 in SSW 3.8 mph 6.9 mph 82% 0 in 375 W/m2
16:11 72.1 °F 66 °F 30 in SSW 3.1 mph 6.9 mph 81% 0 in 368 W/m2
16:16 72.5 °F 66.4 °F 30 in SSW 3.1 mph 6.9 mph 81% 0 in 598 W/m2
16:21 72 °F 65.5 °F 30 in SSW 3.1 mph 7.6 mph 80% 0 in 209 W/m2
16:26 71.1 °F 66 °F 30 in South 2.2 mph 7.6 mph 84% 0 in 204 W/m2
16:31 70.9 °F 65.5 °F 30 in SSW 3.1 mph 6.9 mph 83% 0 in 190 W/m2
16:36 71.2 °F 66.2 °F 30 in South 2.2 mph 6.9 mph 84% 0 in 229 W/m2
16:41 71.4 °F 66 °F 30 in South 5.4 mph 6.9 mph 83% 0 in 132 W/m2
16:46 70.3 °F 65.3 °F 30 in South 4.5 mph 6.9 mph 84% 0 in 194 W/m2
16:51 71.4 °F 66.4 °F 30 in South 3.1 mph 9.2 mph 84% 0 in 499 W/m2
16:56 73 °F 67.3 °F 30 in SSW 5.4 mph 9.2 mph 82% 0 in 461 W/m2
17:01 74.3 °F 67.5 °F 30 in South 3.1 mph 7.6 mph 79% 0 in 374 W/m2
17:06 73.9 °F 66.4 °F 30 in South 2.2 mph 7.6 mph 77% 0 in 328 W/m2
17:11 73.4 °F 66.2 °F 30 in SSW 3.8 mph 6.9 mph 78% 0 in 128 W/m2
17:16 72 °F 65.8 °F 30 in SW 4.5 mph 6 mph 81% 0 in 123 W/m2
17:21 70.5 °F 65.1 °F 30 in SW 3.1 mph 7.6 mph 83% 0 in 115 W/m2
17:26 70 °F 65.3 °F 30 in SSW 5.4 mph 7.6 mph 85% 0 in 123 W/m2
17:31 69.6 °F 65.7 °F 30 in SSW 5.4 mph 6.9 mph 87% 0 in 122 W/m2
17:36 69.3 °F 65.7 °F 30 in SSW 3.1 mph 7.6 mph 88% 0 in 130 W/m2
17:41 69.3 °F 65.8 °F 30 in SSW 4.5 mph 7.6 mph 89% 0 in 130 W/m2
17:46 69.1 °F 65.7 °F 30 in SW 3.1 mph 6.9 mph 89% 0 in 131 W/m2
17:51 69.3 °F 66.2 °F 30 in SSW 3.1 mph 6.9 mph 90% 0 in 126 W/m2
17:56 69.6 °F 66.6 °F 30 in SSW 3.8 mph 6 mph 90% 0 in 123 W/m2
18:01 69.6 °F 66.4 °F 30 in Calm   6 mph 89% 0 in 119 W/m2
18:06 70 °F 66.4 °F 30 in Calm   5.4 mph 88% 0 in 106 W/m2
18:12 70 °F 66.4 °F 30 in Calm   3.8 mph 88% 0 in 95 W/m2
18:17 70.3 °F 66.7 °F 30 in Calm   3.1 mph 88% 0 in 86 W/m2
18:22 70.7 °F 66.9 °F 30 in Calm     88% 0 in 78 W/m2
18:27 71.1 °F 66.7 °F 30 in Calm     86% 0 in 65 W/m2
18:32 71.2 °F 66.9 °F 30 in Calm     86% 0 in 56 W/m2
18:37 71.2 °F 66.9 °F 30 in Calm     86% 0 in 47 W/m2
18:42 71.1 °F 66.4 °F 30 in Calm     85% 0 in 34 W/m2
18:47 70.7 °F 66.4 °F 30 in Calm     86% 0 in 26 W/m2
18:52 70.3 °F 66 °F 30 in Calm     86% 0 in 25 W/m2
18:57 70.3 °F 66.4 °F 30 in Calm     87% 0 in 24 W/m2
19:02 70.3 °F 66.4 °F 30 in Calm     87% 0 in 20 W/m2
19:07 70.2 °F 66 °F 30 in Calm     87% 0 in 17 W/m2
19:12 70 °F 66.4 °F 30 in Calm     88% 0 in 14 W/m2
19:17 69.4 °F 66 °F 30 in Calm     89% 0 in 8 W/m2
19:19 69.3 °F 66.2 °F 30 in South 3.1 mph 3.8 mph 90% 0 in 7 W/m2
19:24 68.7 °F 66.4 °F 30 in South 3.1 mph 4.5 mph 92% 0 in 4 W/m2
19:29 68.5 °F 66.6 °F 30 in South 3.8 mph 6 mph 93% 0 in 2 W/m2
19:34 68.2 °F 66 °F 30 in SSW 1.6 mph 6 mph 93% 0 in 0 W/m2
19:39 68 °F 65.8 °F 30 in Calm   6 mph 93% 0 in 0 W/m2
19:44 67.8 °F 66.4 °F 30 in Calm   3.1 mph 95% 0 in 0 W/m2
19:49 67.5 °F 66 °F 30 in Calm     95% 0 in 0 W/m2
19:54 67.3 °F 65.8 °F 30 in South 1.6 mph 2.2 mph 95% 0 in 0 W/m2
19:59 67.1 °F 65.7 °F 30 in Calm   3.8 mph 95% 0 in 0 W/m2
20:04 67.1 °F 66 °F 30 in Calm   3.8 mph 96% 0 in 0 W/m2
20:09 66.9 °F 65.8 °F 30 in Calm     96% 0 in 0 W/m2
20:14 66.9 °F 65.8 °F 30 in Calm     96% 0 in 0 W/m2
20:19 66.7 °F 65.7 °F 30 in Calm     96% 0 in 0 W/m2
20:24 66.7 °F 65.7 °F 30 in Calm   0.7 mph 96% 0 in 0 W/m2
20:29 66.7 °F 65.7 °F 30 in Calm   0.7 mph 96% 0 in 0 W/m2
20:34 67.1 °F 66 °F 30 in Calm   3.8 mph 96% 0 in 0 W/m2
20:39 67.6 °F 66.2 °F 30 in North 0.7 mph 3.8 mph 95% 0 in 0 W/m2
20:59 68.5 °F 63.9 °F 30 in NNE 2.2 mph 6 mph 85% 0 in 0 W/m2
21:04 68.9 °F 63.7 °F 30 in NNE 2.2 mph 6 mph 83% 0 in 0 W/m2
21:09 69.3 °F 63.7 °F 30 in Calm   6 mph 82% 0 in 0 W/m2
21:14 69.3 °F 63.1 °F 30 in Calm   6 mph 81% 0 in 0 W/m2
21:19 69.3 °F 63 °F 30 in Calm     80% 0 in 0 W/m2
21:24 69.4 °F 62.8 °F 30 in Calm     79% 0 in 0 W/m2
21:29 69.3 °F 62.4 °F 30 in NE 2.2 mph 3.8 mph 79% 0 in 0 W/m2
21:34 69.4 °F 62.2 °F 30 in ENE 2.2 mph 5.4 mph 78% 0 in 0 W/m2
21:39 69.3 °F 62.1 °F 30 in ENE 0.7 mph 5.4 mph 78% 0 in 0 W/m2
21:44 69.3 °F 62.1 °F 30 in Calm   6.9 mph 78% 0 in 0 W/m2
21:49 69.1 °F 62.2 °F 30 in NE 1.6 mph 6.9 mph 79% 0 in 0 W/m2
21:54 69.1 °F 62.2 °F 30 in Calm   3.8 mph 79% 0 in 0 W/m2
21:59 68.9 °F 62.1 °F 30 in NNE 2.2 mph 3.8 mph 79% 0 in 0 W/m2
22:04 68.9 °F 62.1 °F 30 in North 2.2 mph 4.5 mph 79% 0 in 0 W/m2
22:09 68.9 °F 62.1 °F 30 in North 2.2 mph 5.4 mph 79% 0 in 0 W/m2
22:14 68.9 °F 62.1 °F 30 in North 0.7 mph 5.4 mph 79% 0 in 0 W/m2
22:19 68.7 °F 62.2 °F 30 in Calm   5.4 mph 80% 0 in 0 W/m2
22:24 68.7 °F 62.2 °F 30 in NNE 0.7 mph 3.1 mph 80% 0 in 0 W/m2
22:29 68.5 °F 62.2 °F 30 in Calm   3.1 mph 80% 0 in 0 W/m2
22:34 68.5 °F 62.2 °F 30 in Calm   2.2 mph 80% 0 in 0 W/m2
22:39 68.4 °F 62.2 °F 29.9 in Calm   0.7 mph 81% 0 in 0 W/m2
22:44 68.4 °F 62.2 °F 29.9 in Calm   0.7 mph 81% 0 in 0 W/m2
22:49 68.2 °F 62.2 °F 29.9 in Calm     81% 0 in 0 W/m2
22:54 68 °F 62.1 °F 29.9 in Calm     81% 0 in 0 W/m2
22:59 68 °F 62.2 °F 29.9 in Calm     82% 0 in 0 W/m2
23:04 67.8 °F 62.8 °F 29.9 in Calm     84% 0 in 0 W/m2
23:09 67.8 °F 62.8 °F 29.9 in Calm   1.6 mph 84% 0 in 0 W/m2
23:14 67.6 °F 62.8 °F 29.9 in Calm   1.6 mph 84% 0 in 0 W/m2
23:19 67.6 °F 62.8 °F 29.9 in Calm   1.6 mph 84% 0 in 0 W/m2
23:24 67.5 °F 62.4 °F 29.9 in Calm   1.6 mph 84% 0 in 0 W/m2
23:29 67.3 °F 62.6 °F 29.9 in Calm     85% 0 in 0 W/m2
23:34 67.1 °F 62.4 °F 29.9 in Calm   2.2 mph 85% 0 in 0 W/m2
23:39 66.9 °F 62.2 °F 29.9 in Calm   2.2 mph 85% 0 in 0 W/m2
23:44 66.7 °F 62.1 °F 29.9 in Calm     85% 0 in 0 W/m2
23:49 66.7 °F 62.1 °F 29.9 in Calm     85% 0 in 0 W/m2
23:54 66.6 °F 61.9 °F 29.9 in Calm     85% 0 in 0 W/m2
23:59 66.2 °F 61.5 °F 29.9 in Calm     85% 0 in 0 W/m2
Northern Hawkes Bay. New Zealand Historic Data
Compliments of Weather Underground - 2.25 mb